createdAt,value
2018-09-20T00:00:55.295Z,18.63
2018-09-20T00:01:54.409Z,18.67
2018-09-20T00:02:54.334Z,18.62
2018-09-20T00:03:54.258Z,18.62
2018-09-20T00:04:54.171Z,18.66
2018-09-20T00:05:54.096Z,18.50
2018-09-20T00:06:54.020Z,18.54
2018-09-20T00:07:53.934Z,18.55
2018-09-20T00:08:53.858Z,18.58
2018-09-20T00:09:53.788Z,18.63
2018-09-20T00:10:53.702Z,18.60
2018-09-20T00:11:53.622Z,18.60
2018-09-20T00:12:53.560Z,18.51
2018-09-20T00:13:53.460Z,18.69
2018-09-20T00:14:53.387Z,18.66
2018-09-20T00:15:53.309Z,18.52
2018-09-20T00:16:53.222Z,18.66
2018-09-20T00:17:53.160Z,18.67
2018-09-20T00:18:53.071Z,18.62
2018-09-20T00:19:52.987Z,18.63
2018-09-20T00:20:52.911Z,18.58
2018-09-20T00:21:52.836Z,18.67
2018-09-20T00:22:52.748Z,18.67
2018-09-20T00:23:52.673Z,18.57
2018-09-20T00:24:52.602Z,18.62
2018-09-20T00:25:52.512Z,18.52
2018-09-20T00:26:52.436Z,18.65
2018-09-20T00:27:52.348Z,18.63
2018-09-20T00:28:52.287Z,18.63
2018-09-20T00:29:52.198Z,18.65
2018-09-20T00:30:52.111Z,18.63
2018-09-20T00:31:52.039Z,18.70
2018-09-20T00:32:51.962Z,18.63
2018-09-20T00:33:51.886Z,18.63
2018-09-20T00:34:51.799Z,18.60
2018-09-20T00:35:51.724Z,18.66
2018-09-20T00:36:51.640Z,18.50
2018-09-20T00:37:51.563Z,18.60
2018-09-20T00:38:51.489Z,18.73
2018-09-20T00:39:51.400Z,18.75
2018-09-20T00:40:51.324Z,18.73
2018-09-20T00:41:51.249Z,18.91
2018-09-20T00:42:51.161Z,18.90
2018-09-20T00:43:51.088Z,19.04
2018-09-20T00:44:51.003Z,19.02
2018-09-20T00:45:51.175Z,18.99
2018-09-20T00:46:50.849Z,19.10
2018-09-20T00:47:50.762Z,19.10
2018-09-20T00:48:50.689Z,19.08
2018-09-20T00:49:50.614Z,19.10
2018-09-20T00:50:50.526Z,19.23
2018-09-20T00:51:50.450Z,19.18
2018-09-20T00:52:50.376Z,19.11
2018-09-20T00:53:50.288Z,19.10
2018-09-20T00:54:50.214Z,19.08
2018-09-20T00:55:50.139Z,19.04
2018-09-20T00:56:50.051Z,19.02
2018-09-20T00:57:49.990Z,18.98
2018-09-20T00:58:49.900Z,18.99
2018-09-20T00:59:49.814Z,19.02
2018-09-20T01:00:50.040Z,19.02
2018-09-20T01:01:49.665Z,19.00
2018-09-20T01:02:49.576Z,18.94
2018-09-20T01:03:49.502Z,18.99
2018-09-20T01:04:49.426Z,19.06
2018-09-20T01:05:49.339Z,18.99
2018-09-20T01:06:49.265Z,19.06
2018-09-20T01:07:49.177Z,19.00
2018-09-20T01:08:49.102Z,18.99
2018-09-20T01:09:49.026Z,18.95
2018-09-20T01:10:49.190Z,18.99
2018-09-20T01:11:48.865Z,19.07
2018-09-20T01:12:48.791Z,18.98
2018-09-20T01:13:48.705Z,19.04
2018-09-20T01:14:48.627Z,19.00
2018-09-20T01:15:48.565Z,19.02
2018-09-20T01:16:48.466Z,19.02
2018-09-20T01:17:48.391Z,19.02
2018-09-20T01:18:48.316Z,18.94
2018-09-20T01:19:48.228Z,18.82
2018-09-20T01:20:48.166Z,18.88
2018-09-20T01:21:48.084Z,18.90
2018-09-20T01:22:47.993Z,18.90
2018-09-20T01:23:47.916Z,18.84
2018-09-20T01:24:47.845Z,18.90
2018-09-20T01:25:47.767Z,18.91
2018-09-20T01:26:47.683Z,18.81
2018-09-20T01:27:47.604Z,18.85
2018-09-20T01:28:47.529Z,18.95
2018-09-20T01:29:47.443Z,19.00
2018-09-20T01:30:47.356Z,18.98
2018-09-20T01:31:47.280Z,18.99
2018-09-20T01:32:47.205Z,18.95
2018-09-20T01:33:47.118Z,19.04
2018-09-20T01:34:47.045Z,19.07
2018-09-20T01:35:47.219Z,19.00
2018-09-20T01:36:46.881Z,18.98
2018-09-20T01:37:46.819Z,19.02
2018-09-20T01:38:46.730Z,19.04
2018-09-20T01:39:46.647Z,19.06
2018-09-20T01:40:46.569Z,18.98
2018-09-20T01:41:46.499Z,18.98
2018-09-20T01:42:46.419Z,18.87
2018-09-20T01:43:46.334Z,18.94
2018-09-20T01:44:46.256Z,18.76
2018-09-20T01:45:46.169Z,18.66
2018-09-20T01:46:46.094Z,18.67
2018-09-20T01:47:46.008Z,18.70
2018-09-20T01:48:45.932Z,18.50
2018-09-20T01:49:45.856Z,18.51
2018-09-20T01:50:46.081Z,18.58
2018-09-20T01:51:45.695Z,18.57
2018-09-20T01:52:45.620Z,18.63
2018-09-20T01:53:45.534Z,18.52
2018-09-20T01:54:45.457Z,18.54
2018-09-20T01:55:45.383Z,18.51
2018-09-20T01:56:45.307Z,18.45
2018-09-20T01:57:45.223Z,18.48
2018-09-20T01:58:45.145Z,18.47
2018-09-20T01:59:45.057Z,18.39
2018-09-20T02:00:44.983Z,18.35
2018-09-20T02:01:44.908Z,18.39
2018-09-20T02:02:44.821Z,18.32
2018-09-20T02:03:44.747Z,18.27
2018-09-20T02:04:44.659Z,18.33
2018-09-20T02:05:44.834Z,18.30
2018-09-20T02:06:44.508Z,18.26
2018-09-20T02:07:44.427Z,18.25
2018-09-20T02:08:44.346Z,18.29
2018-09-20T02:09:44.271Z,18.20
2018-09-20T02:10:44.198Z,18.25
2018-09-20T02:11:44.110Z,18.21
2018-09-20T02:12:44.035Z,18.15
2018-09-20T02:13:43.947Z,18.20
2018-09-20T02:14:43.875Z,18.20
2018-09-20T02:15:43.797Z,18.18
2018-09-20T02:16:43.710Z,18.25
2018-09-20T02:17:43.634Z,18.10
2018-09-20T02:18:43.548Z,18.07
2018-09-20T02:19:43.472Z,18.08
2018-09-20T02:20:43.399Z,18.11
2018-09-20T02:21:43.310Z,18.12
2018-09-20T02:22:43.235Z,18.11
2018-09-20T02:23:43.159Z,18.03
2018-09-20T02:24:43.073Z,18.10
2018-09-20T02:25:42.999Z,18.10
2018-09-20T02:26:42.911Z,18.03
2018-09-20T02:27:42.836Z,18.00
2018-09-20T02:28:42.761Z,18.10
2018-09-20T02:29:42.675Z,18.02
2018-09-20T02:30:42.599Z,18.00
2018-09-20T02:31:42.525Z,18.05
2018-09-20T02:32:42.437Z,17.99
2018-09-20T02:33:42.362Z,17.99
2018-09-20T02:34:42.287Z,18.00
2018-09-20T02:35:42.201Z,18.02
2018-09-20T02:36:42.124Z,17.99
2018-09-20T02:37:42.055Z,17.96
2018-09-20T02:38:41.962Z,17.96
2018-09-20T02:39:41.887Z,17.95
2018-09-20T02:40:42.102Z,17.97
2018-09-20T02:41:41.728Z,18.00
2018-09-20T02:42:41.652Z,17.97
2018-09-20T02:43:41.563Z,17.93
2018-09-20T02:44:41.487Z,17.87
2018-09-20T02:45:41.413Z,17.92
2018-09-20T02:46:41.327Z,17.95
2018-09-20T02:47:41.251Z,17.93
2018-09-20T02:48:41.167Z,17.87
2018-09-20T02:49:41.091Z,17.93
2018-09-20T02:50:41.013Z,17.92
2018-09-20T02:51:40.927Z,17.89
2018-09-20T02:52:40.852Z,17.87
2018-09-20T02:53:40.778Z,17.87
2018-09-20T02:54:40.703Z,17.79
2018-09-20T02:55:40.616Z,17.82
2018-09-20T02:56:40.530Z,17.77
2018-09-20T02:57:40.453Z,17.82
2018-09-20T02:58:40.366Z,17.77
2018-09-20T02:59:40.290Z,17.84
2018-09-20T03:00:40.215Z,17.77
2018-09-20T03:01:40.130Z,17.79
2018-09-20T03:02:40.053Z,17.71
2018-09-20T03:03:39.986Z,17.71
2018-09-20T03:04:39.896Z,17.70
2018-09-20T03:05:39.815Z,17.71
2018-09-20T03:06:39.731Z,17.72
2018-09-20T03:07:39.654Z,17.79
2018-09-20T03:08:39.579Z,17.82
2018-09-20T03:09:39.490Z,17.78
2018-09-20T03:10:39.430Z,17.78
2018-09-20T03:11:39.340Z,17.81
2018-09-20T03:12:39.255Z,17.77
2018-09-20T03:13:39.179Z,17.81
2018-09-20T03:14:39.090Z,17.64
2018-09-20T03:15:39.017Z,17.59
2018-09-20T03:16:38.940Z,17.66
2018-09-20T03:17:38.854Z,17.56
2018-09-20T03:18:38.780Z,17.58
2018-09-20T03:19:38.693Z,17.38
2018-09-20T03:20:38.875Z,17.41
2018-09-20T03:21:38.541Z,17.54
2018-09-20T03:22:38.457Z,17.43
2018-09-20T03:23:38.380Z,17.48
2018-09-20T03:24:38.292Z,17.41
2018-09-20T03:25:38.217Z,17.34
2018-09-20T03:26:38.141Z,17.23
2018-09-20T03:27:38.055Z,17.23
2018-09-20T03:28:37.986Z,17.19
2018-09-20T03:29:37.892Z,17.14
2018-09-20T03:30:38.157Z,17.14
2018-09-20T03:31:37.744Z,17.06
2018-09-20T03:32:37.659Z,17.12
2018-09-20T03:33:37.581Z,17.07
2018-09-20T03:34:37.493Z,17.04
2018-09-20T03:35:37.418Z,17.00
2018-09-20T03:36:37.344Z,17.07
2018-09-20T03:37:37.257Z,16.93
2018-09-20T03:38:37.181Z,17.04
2018-09-20T03:39:37.093Z,17.03
2018-09-20T03:40:37.272Z,17.00
2018-09-20T03:41:36.943Z,17.01
2018-09-20T03:42:36.857Z,17.03
2018-09-20T03:43:36.785Z,17.01
2018-09-20T03:44:36.695Z,16.96
2018-09-20T03:45:36.619Z,16.98
2018-09-20T03:46:36.539Z,16.91
2018-09-20T03:47:36.458Z,17.03
2018-09-20T03:48:36.385Z,17.01
2018-09-20T03:49:36.299Z,16.96
2018-09-20T03:50:36.219Z,16.89
2018-09-20T03:51:36.133Z,16.89
2018-09-20T03:52:36.058Z,16.89
2018-09-20T03:53:35.983Z,16.88
2018-09-20T03:54:35.897Z,16.86
2018-09-20T03:55:35.820Z,16.91
2018-09-20T03:56:35.733Z,16.89
2018-09-20T03:57:35.659Z,16.79
2018-09-20T03:58:35.570Z,16.79
2018-09-20T03:59:35.509Z,16.93
2018-09-20T04:00:35.421Z,16.88
2018-09-20T04:01:35.341Z,16.88
2018-09-20T04:02:35.260Z,16.89
2018-09-20T04:03:35.174Z,16.86
2018-09-20T04:04:35.096Z,16.81
2018-09-20T04:05:35.321Z,16.93
2018-09-20T04:06:34.935Z,16.79
2018-09-20T04:07:34.859Z,16.88
2018-09-20T04:08:34.772Z,16.79
2018-09-20T04:09:34.720Z,16.86
2018-09-20T04:10:34.861Z,16.75
2018-09-20T04:11:34.536Z,16.79
2018-09-20T04:12:34.460Z,16.81
2018-09-20T04:13:34.382Z,16.78
2018-09-20T04:14:34.298Z,16.76
2018-09-20T04:15:34.213Z,16.73
2018-09-20T04:16:34.139Z,16.81
2018-09-20T04:17:34.055Z,16.73
2018-09-20T04:18:33.975Z,16.75
2018-09-20T04:19:33.898Z,16.75
2018-09-20T04:20:33.811Z,16.76
2018-09-20T04:21:33.749Z,16.68
2018-09-20T04:22:33.649Z,16.67
2018-09-20T04:23:33.573Z,16.75
2018-09-20T04:24:33.500Z,16.67
2018-09-20T04:25:33.412Z,16.64
2018-09-20T04:26:33.336Z,16.60
2018-09-20T04:27:33.250Z,16.53
2018-09-20T04:28:33.187Z,16.58
2018-09-20T04:29:33.088Z,16.61
2018-09-20T04:30:33.012Z,16.50
2018-09-20T04:31:32.929Z,16.52
2018-09-20T04:32:32.849Z,16.49
2018-09-20T04:33:32.774Z,16.61
2018-09-20T04:34:32.687Z,16.58
2018-09-20T04:35:32.912Z,16.56
2018-09-20T04:36:32.529Z,16.57
2018-09-20T04:37:32.449Z,16.66
2018-09-20T04:38:32.363Z,16.66
2018-09-20T04:39:32.288Z,16.64
2018-09-20T04:40:32.214Z,16.58
2018-09-20T04:41:32.128Z,16.57
2018-09-20T04:42:32.050Z,16.60
2018-09-20T04:43:31.965Z,16.58
2018-09-20T04:44:31.889Z,16.58
2018-09-20T04:45:31.802Z,16.64
2018-09-20T04:46:31.726Z,16.64
2018-09-20T04:47:31.652Z,16.58
2018-09-20T04:48:31.565Z,16.57
2018-09-20T04:49:31.492Z,16.60
2018-09-20T04:50:31.402Z,16.66
2018-09-20T04:51:31.327Z,16.68
2018-09-20T04:52:31.242Z,16.70
2018-09-20T04:53:31.258Z,16.70
2018-09-20T04:54:31.091Z,16.73
2018-09-20T04:55:31.002Z,16.75
2018-09-20T04:56:30.928Z,16.78
2018-09-20T04:57:30.844Z,16.81
2018-09-20T04:58:30.768Z,16.70
2018-09-20T04:59:30.678Z,16.75
2018-09-20T05:00:30.853Z,16.79
2018-09-20T05:01:30.528Z,16.73
2018-09-20T05:02:30.441Z,16.75
2018-09-20T05:03:30.368Z,16.63
2018-09-20T05:04:30.291Z,16.78
2018-09-20T05:05:30.203Z,16.81
2018-09-20T05:06:30.117Z,16.82
2018-09-20T05:07:30.041Z,16.89
2018-09-20T05:08:29.969Z,16.83
2018-09-20T05:09:29.914Z,16.81
2018-09-20T05:10:29.804Z,16.81
2018-09-20T05:11:29.717Z,16.81
2018-09-20T05:12:29.642Z,16.78
2018-09-20T05:13:29.560Z,16.79
2018-09-20T05:14:29.479Z,16.86
2018-09-20T05:15:29.404Z,16.83
2018-09-20T05:16:29.317Z,16.81
2018-09-20T05:17:29.243Z,16.93
2018-09-20T05:18:29.154Z,16.78
2018-09-20T05:19:29.080Z,16.81
2018-09-20T05:20:28.994Z,16.88
2018-09-20T05:21:28.918Z,16.89
2018-09-20T05:22:28.843Z,16.86
2018-09-20T05:23:28.763Z,16.91
2018-09-20T05:24:28.693Z,17.01
2018-09-20T05:25:28.594Z,17.00
2018-09-20T05:26:28.519Z,17.00
2018-09-20T05:27:28.432Z,17.00
2018-09-20T05:28:28.356Z,17.08
2018-09-20T05:29:28.281Z,17.04
2018-09-20T05:30:28.194Z,17.00
2018-09-20T05:31:28.120Z,17.03
2018-09-20T05:32:28.031Z,16.96
2018-09-20T05:33:27.956Z,17.01
2018-09-20T05:34:27.885Z,17.08
2018-09-20T05:35:28.156Z,17.11
2018-09-20T05:36:27.720Z,17.12
2018-09-20T05:37:27.644Z,17.14
2018-09-20T05:38:27.557Z,17.18
2018-09-20T05:39:27.481Z,17.22
2018-09-20T05:40:27.395Z,17.23
2018-09-20T05:41:27.321Z,17.26
2018-09-20T05:42:27.232Z,17.30
2018-09-20T05:43:27.160Z,17.30
2018-09-20T05:44:27.072Z,17.34
2018-09-20T05:45:27.003Z,17.36
2018-09-20T05:46:26.921Z,17.31
2018-09-20T05:47:26.832Z,17.40
2018-09-20T05:48:26.757Z,17.37
2018-09-20T05:49:26.682Z,17.38
2018-09-20T05:50:26.596Z,17.43
2018-09-20T05:51:26.521Z,17.37
2018-09-20T05:52:26.432Z,17.52
2018-09-20T05:53:26.375Z,17.54
2018-09-20T05:54:26.272Z,17.54
2018-09-20T05:55:26.197Z,17.74
2018-09-20T05:56:26.122Z,17.63
2018-09-20T05:57:26.034Z,17.59
2018-09-20T05:58:25.965Z,17.75
2018-09-20T05:59:25.970Z,17.78
2018-09-20T06:00:25.799Z,17.82
2018-09-20T06:01:25.724Z,17.81
2018-09-20T06:02:25.634Z,17.87
2018-09-20T06:03:25.560Z,17.77
2018-09-20T06:04:25.474Z,17.95
2018-09-20T06:05:25.397Z,17.92
2018-09-20T06:06:25.323Z,18.02
2018-09-20T06:07:25.235Z,17.96
2018-09-20T06:08:25.160Z,18.00
2018-09-20T06:09:25.085Z,18.03
2018-09-20T06:10:24.998Z,18.21
2018-09-20T06:11:24.924Z,18.17
2018-09-20T06:12:24.839Z,18.27
2018-09-20T06:13:24.761Z,18.27
2018-09-20T06:14:24.686Z,18.25
2018-09-20T06:15:24.599Z,18.37
2018-09-20T06:16:24.524Z,18.36
2018-09-20T06:17:24.437Z,18.37
2018-09-20T06:18:24.360Z,18.41
2018-09-20T06:19:24.286Z,18.44
2018-09-20T06:20:24.199Z,18.52
2018-09-20T06:21:24.125Z,18.62
2018-09-20T06:22:24.051Z,18.67
2018-09-20T06:23:23.962Z,18.66
2018-09-20T06:24:23.887Z,18.66
2018-09-20T06:25:23.813Z,18.69
2018-09-20T06:26:23.725Z,18.75
2018-09-20T06:27:23.651Z,18.67
2018-09-20T06:28:23.580Z,18.82
2018-09-20T06:29:23.487Z,18.76
2018-09-20T06:30:23.413Z,18.81
2018-09-20T06:31:23.326Z,18.87
2018-09-20T06:32:23.254Z,18.91
2018-09-20T06:33:23.177Z,18.94
2018-09-20T06:34:23.088Z,18.99
2018-09-20T06:35:23.015Z,18.95
2018-09-20T06:36:22.940Z,19.04
2018-09-20T06:37:22.852Z,19.02
2018-09-20T06:38:22.776Z,19.08
2018-09-20T06:39:22.701Z,19.11
2018-09-20T06:40:22.863Z,19.22
2018-09-20T06:41:22.551Z,19.18
2018-09-20T06:42:22.463Z,19.21
2018-09-20T06:43:22.376Z,19.28
2018-09-20T06:44:22.314Z,19.22
2018-09-20T06:45:22.228Z,19.36
2018-09-20T06:46:22.139Z,19.28
2018-09-20T06:47:22.064Z,19.33
2018-09-20T06:48:21.992Z,19.40
2018-09-20T06:49:21.903Z,19.32
2018-09-20T06:50:21.892Z,19.36
2018-09-20T06:51:21.752Z,19.41
2018-09-20T06:52:21.665Z,19.43
2018-09-20T06:53:21.602Z,19.41
2018-09-20T06:54:21.515Z,19.41
2018-09-20T06:55:21.433Z,19.43
2018-09-20T06:56:21.353Z,19.47
2018-09-20T06:57:21.278Z,19.56
2018-09-20T06:58:21.204Z,19.56
2018-09-20T06:59:21.115Z,19.59
2018-09-20T07:00:21.291Z,19.65
2018-09-20T07:01:20.954Z,19.66
2018-09-20T07:02:20.880Z,19.77
2018-09-20T07:03:20.815Z,19.77
2018-09-20T07:04:20.716Z,19.78
2018-09-20T07:05:20.642Z,19.78
2018-09-20T07:06:20.566Z,19.92
2018-09-20T07:07:20.480Z,19.96
2018-09-20T07:08:20.404Z,20.11
2018-09-20T07:09:20.330Z,20.05
2018-09-20T07:10:20.242Z,20.06
2018-09-20T07:11:20.167Z,20.31
2018-09-20T07:12:20.092Z,20.43
2018-09-20T07:13:20.007Z,20.51
2018-09-20T07:14:19.931Z,20.66
2018-09-20T07:15:19.856Z,20.72
2018-09-20T07:16:19.781Z,20.77
2018-09-20T07:17:19.693Z,20.95
2018-09-20T07:18:19.636Z,21.04
2018-09-20T07:19:19.618Z,20.98
2018-09-20T07:20:19.457Z,21.22
2018-09-20T07:21:19.388Z,21.16
2018-09-20T07:22:19.306Z,21.22
2018-09-20T07:23:19.232Z,21.38
2018-09-20T07:24:19.143Z,21.47
2018-09-20T07:25:19.174Z,21.50
2018-09-20T07:26:18.998Z,21.68
2018-09-20T07:27:18.919Z,21.99
2018-09-20T07:28:18.835Z,22.14
2018-09-20T07:29:18.758Z,22.37
2018-09-20T07:30:18.684Z,22.68
2018-09-20T07:31:18.607Z,22.95
2018-09-20T07:32:18.520Z,23.22
2018-09-20T07:33:18.454Z,23.48
2018-09-20T07:34:18.371Z,23.80
2018-09-20T07:35:18.295Z,24.03
2018-09-20T07:36:18.222Z,24.09
2018-09-20T07:37:18.145Z,24.27
2018-09-20T07:38:18.059Z,24.62
2018-09-20T07:39:17.994Z,24.90
2018-09-20T07:40:17.910Z,25.18
2018-09-20T07:41:17.833Z,25.18
2018-09-20T07:42:17.768Z,25.24
2018-09-20T07:43:17.684Z,25.24
2018-09-20T07:44:17.616Z,25.40
2018-09-20T07:45:17.522Z,25.70
2018-09-20T07:46:17.446Z,25.87
2018-09-20T07:47:17.372Z,26.10
2018-09-20T07:48:17.296Z,26.29
2018-09-20T07:49:17.221Z,26.58
2018-09-20T07:50:17.146Z,26.69
2018-09-20T07:51:17.072Z,26.81
2018-09-20T07:52:16.996Z,26.91
2018-09-20T07:53:16.921Z,26.92
2018-09-20T07:54:16.846Z,26.76
2018-09-20T07:55:16.785Z,26.60
2018-09-20T07:56:16.697Z,26.69
2018-09-20T07:57:16.623Z,26.73
2018-09-20T07:58:16.560Z,27.00
2018-09-20T07:59:16.485Z,27.36
2018-09-20T08:00:16.411Z,27.37
2018-09-20T08:01:16.336Z,27.43
2018-09-20T08:02:16.266Z,27.46
2018-09-20T08:03:16.187Z,27.34
2018-09-20T08:04:16.112Z,27.54
2018-09-20T08:05:16.036Z,27.49
2018-09-20T08:06:15.972Z,27.27
2018-09-20T08:07:15.997Z,27.47
2018-09-20T08:08:15.822Z,27.78
2018-09-20T08:09:15.748Z,27.88
2018-09-20T08:10:15.673Z,27.97
2018-09-20T08:11:15.614Z,28.07
2018-09-20T08:12:15.524Z,27.67
2018-09-20T08:13:15.463Z,27.32
2018-09-20T08:14:15.386Z,26.84
2018-09-20T08:15:15.312Z,26.75
2018-09-20T08:16:15.238Z,26.82
2018-09-20T08:17:15.174Z,26.97
2018-09-20T08:18:15.099Z,27.39
2018-09-20T08:19:15.027Z,27.72
2018-09-20T08:20:14.963Z,27.78
2018-09-20T08:21:14.875Z,27.84
2018-09-20T08:22:14.813Z,27.46
2018-09-20T08:23:14.738Z,27.78
2018-09-20T08:24:14.663Z,27.93
2018-09-20T08:25:14.592Z,28.18
2018-09-20T08:26:14.525Z,28.41
2018-09-20T08:27:14.450Z,28.21
2018-09-20T08:28:14.375Z,28.11
2018-09-20T08:29:14.307Z,27.94
2018-09-20T08:30:14.240Z,27.94
2018-09-20T08:31:14.164Z,28.29
2018-09-20T08:32:14.090Z,28.64
2018-09-20T08:33:14.027Z,28.92
2018-09-20T08:34:13.951Z,29.12
2018-09-20T08:35:13.876Z,29.30
2018-09-20T08:36:13.801Z,28.95
2018-09-20T08:37:13.759Z,28.56
2018-09-20T08:38:13.665Z,28.31
2018-09-20T08:39:13.591Z,28.27
2018-09-20T08:40:13.776Z,28.11
2018-09-20T08:41:13.452Z,28.09
2018-09-20T08:42:13.377Z,28.18
2018-09-20T08:43:13.315Z,28.54
2018-09-20T08:44:13.241Z,28.11
2018-09-20T08:45:13.166Z,27.85
2018-09-20T08:46:13.102Z,27.62
2018-09-20T08:47:13.028Z,27.67
2018-09-20T08:48:12.952Z,27.93
2018-09-20T08:49:12.891Z,28.43
2018-09-20T08:50:12.816Z,28.74
2018-09-20T08:51:12.741Z,29.24
2018-09-20T08:52:12.667Z,29.18
2018-09-20T08:53:12.603Z,29.15
2018-09-20T08:54:12.528Z,29.49
2018-09-20T08:55:12.454Z,29.52
2018-09-20T08:56:12.394Z,29.30
2018-09-20T08:57:12.364Z,29.24
2018-09-20T08:58:12.242Z,29.46
2018-09-20T08:59:12.178Z,29.48
2018-09-20T09:00:12.104Z,29.23
2018-09-20T09:01:12.042Z,29.14
2018-09-20T09:02:11.967Z,28.78
2018-09-20T09:03:11.895Z,28.66
2018-09-20T09:04:11.829Z,28.18
2018-09-20T09:05:11.767Z,28.21
2018-09-20T09:06:11.683Z,28.39
2018-09-20T09:07:11.617Z,27.88
2018-09-20T09:08:11.542Z,27.92
2018-09-20T09:09:11.467Z,27.84
2018-09-20T09:10:11.404Z,27.88
2018-09-20T09:11:11.329Z,27.92
2018-09-20T09:12:11.255Z,28.37
2018-09-20T09:13:11.182Z,28.34
2018-09-20T09:14:11.118Z,28.83
2018-09-20T09:15:11.045Z,28.51
2018-09-20T09:16:10.970Z,28.51
2018-09-20T09:17:10.906Z,28.59
2018-09-20T09:18:10.831Z,28.71
2018-09-20T09:19:10.756Z,29.33
2018-09-20T09:20:10.944Z,29.65
2018-09-20T09:21:10.619Z,30.15
2018-09-20T09:22:10.556Z,29.95
2018-09-20T09:23:10.494Z,29.97
2018-09-20T09:24:10.406Z,30.31
2018-09-20T09:25:10.344Z,29.78
2018-09-20T09:26:10.269Z,29.74
2018-09-20T09:27:10.196Z,29.92
2018-09-20T09:28:10.132Z,29.24
2018-09-20T09:30:09.995Z,29.26
2018-09-20T09:31:09.920Z,29.08
2018-09-20T09:32:09.846Z,29.12
2018-09-20T09:33:09.783Z,28.77
2018-09-20T09:34:09.723Z,28.83
2018-09-20T09:35:09.646Z,29.00
2018-09-20T09:36:09.576Z,29.11
2018-09-20T09:37:09.497Z,29.16
2018-09-20T09:38:09.437Z,29.14
2018-09-20T09:39:09.357Z,29.04
2018-09-20T09:40:09.296Z,28.93
2018-09-20T09:41:09.222Z,28.43
2018-09-20T09:42:09.178Z,28.55
2018-09-20T09:43:09.083Z,28.43
2018-09-20T09:44:09.008Z,28.33
2018-09-20T09:45:08.934Z,28.44
2018-09-20T09:46:08.872Z,28.43
2018-09-20T09:47:08.797Z,28.12
2018-09-20T09:48:08.777Z,27.99
2018-09-20T09:49:08.660Z,27.93
2018-09-20T09:50:08.588Z,27.87
2018-09-20T09:51:08.509Z,27.51
2018-09-20T09:52:08.448Z,27.00
2018-09-20T09:53:08.375Z,26.80
2018-09-20T09:54:08.297Z,26.67
2018-09-20T09:55:08.223Z,26.57
2018-09-20T09:56:08.159Z,26.21
2018-09-20T09:57:08.084Z,26.23
2018-09-20T09:58:08.010Z,26.07
2018-09-20T09:59:07.948Z,25.99
2018-09-20T10:00:07.874Z,26.01
2018-09-20T10:01:07.798Z,26.09
2018-09-20T10:02:07.723Z,26.20
2018-09-20T10:03:07.649Z,26.57
2018-09-20T10:04:07.585Z,26.72
2018-09-20T10:05:07.512Z,26.76
2018-09-20T10:06:07.438Z,27.02
2018-09-20T10:07:07.371Z,27.10
2018-09-20T10:08:07.285Z,27.18
2018-09-20T10:09:07.212Z,27.43
2018-09-20T10:10:07.150Z,27.46
2018-09-20T10:11:07.074Z,27.51
2018-09-20T10:12:07.002Z,27.44
2018-09-20T10:13:06.925Z,27.44
2018-09-20T10:14:06.850Z,27.47
2018-09-20T10:15:06.775Z,27.40
2018-09-20T10:16:06.712Z,27.37
2018-09-20T10:17:06.637Z,27.34
2018-09-20T10:18:06.563Z,27.44
2018-09-20T10:19:06.488Z,27.44
2018-09-20T10:20:06.498Z,27.06
2018-09-20T10:21:06.351Z,27.40
2018-09-20T10:22:06.277Z,27.49
2018-09-20T10:23:06.201Z,27.40
2018-09-20T10:24:06.194Z,27.63
2018-09-20T10:25:06.056Z,27.75
2018-09-20T10:26:05.977Z,27.75
2018-09-20T10:27:05.927Z,27.65
2018-09-20T10:28:05.858Z,27.63
2018-09-20T10:29:05.768Z,27.27
2018-09-20T10:30:05.692Z,27.50
2018-09-20T10:31:05.627Z,27.51
2018-09-20T10:32:05.540Z,27.63
2018-09-20T10:33:05.477Z,27.62
2018-09-20T10:34:05.434Z,27.69
2018-09-20T10:35:05.327Z,27.82
2018-09-20T10:36:05.252Z,27.94
2018-09-20T10:37:05.177Z,28.17
2018-09-20T10:38:05.132Z,28.12
2018-09-20T10:39:05.053Z,28.29
2018-09-20T10:40:04.965Z,28.19
2018-09-20T10:41:04.890Z,28.19
2018-09-20T10:42:04.815Z,28.06
2018-09-20T10:43:04.754Z,27.78
2018-09-20T10:44:04.679Z,27.74
2018-09-20T10:45:04.615Z,27.82
2018-09-20T10:46:04.529Z,27.74
2018-09-20T10:47:04.469Z,27.78
2018-09-20T10:48:04.391Z,28.03
2018-09-20T10:49:04.317Z,27.57
2018-09-20T10:50:04.243Z,27.36
2018-09-20T10:51:04.166Z,27.36
2018-09-20T10:52:04.091Z,27.37
2018-09-20T10:53:04.019Z,27.27
2018-09-20T10:54:03.954Z,27.02
2018-09-20T10:55:03.880Z,27.18
2018-09-20T10:56:03.806Z,27.57
2018-09-20T10:57:03.730Z,27.88
2018-09-20T10:58:03.655Z,27.96
2018-09-20T10:59:03.605Z,27.96
2018-09-20T11:00:03.552Z,28.34
2018-09-20T11:01:03.455Z,28.62
2018-09-20T11:02:03.378Z,28.93
2018-09-20T11:03:03.327Z,29.14
2018-09-20T11:04:03.223Z,29.43
2018-09-20T11:05:03.156Z,29.51
2018-09-20T11:06:03.080Z,29.34
2018-09-20T11:07:03.006Z,29.53
2018-09-20T11:08:02.932Z,29.42
2018-09-20T11:09:02.868Z,29.48
2018-09-20T11:10:02.794Z,29.68
2018-09-20T11:11:02.789Z,28.98
2018-09-20T11:12:02.644Z,29.09
2018-09-20T11:13:02.582Z,29.02
2018-09-20T11:14:02.508Z,29.19
2018-09-20T11:15:02.432Z,29.42
2018-09-20T11:16:02.368Z,29.24
2018-09-20T11:17:02.294Z,29.08
2018-09-20T11:18:02.220Z,29.85
2018-09-20T11:19:02.158Z,30.37
2018-09-20T11:20:02.083Z,30.70
2018-09-20T11:21:02.033Z,30.75
2018-09-20T11:22:01.945Z,30.80
2018-09-20T11:23:01.886Z,31.28
2018-09-20T11:24:01.815Z,31.51
2018-09-20T11:25:01.733Z,31.61
2018-09-20T11:26:01.696Z,31.70
2018-09-20T11:27:01.596Z,32.18
2018-09-20T11:28:01.534Z,31.73
2018-09-20T11:29:01.459Z,31.57
2018-09-20T11:30:01.395Z,31.75
2018-09-20T11:31:01.322Z,31.73
2018-09-20T11:32:01.259Z,31.88
2018-09-20T11:33:01.194Z,32.03
2018-09-20T11:34:01.121Z,32.18
2018-09-20T11:35:01.046Z,31.48
2018-09-20T11:36:00.984Z,30.95
2018-09-20T11:37:00.911Z,31.16
2018-09-20T11:38:00.846Z,31.63
2018-09-20T11:39:00.773Z,31.54
2018-09-20T11:40:00.711Z,31.53
2018-09-20T11:41:00.647Z,31.93
2018-09-20T11:42:00.573Z,32.41
2018-09-20T11:43:00.516Z,32.63
2018-09-20T11:44:00.435Z,32.84
2018-09-20T11:45:00.372Z,33.15
2018-09-20T11:46:00.311Z,33.31
2018-09-20T11:47:00.236Z,33.82
2018-09-20T11:48:00.172Z,33.61
2018-09-20T11:49:00.110Z,33.16
2018-09-20T11:50:00.036Z,33.21
2018-09-20T11:50:59.977Z,33.18
2018-09-20T11:51:59.899Z,33.59
2018-09-20T11:52:59.836Z,33.73
2018-09-20T11:53:59.773Z,33.72
2018-09-20T11:54:59.698Z,33.34
2018-09-20T11:55:59.637Z,32.56
2018-09-20T11:56:59.575Z,32.14
2018-09-20T11:57:59.501Z,31.75
2018-09-20T11:58:59.438Z,32.18
2018-09-20T11:59:59.374Z,32.25
2018-09-20T12:00:59.311Z,32.26
2018-09-20T12:01:59.290Z,32.72
2018-09-20T12:02:59.174Z,32.97
2018-09-20T12:03:59.099Z,33.18
2018-09-20T12:04:59.038Z,33.86
2018-09-20T12:05:58.963Z,34.06
2018-09-20T12:06:58.900Z,34.00
2018-09-20T12:07:58.837Z,33.60
2018-09-20T12:08:58.774Z,33.69
2018-09-20T12:09:58.700Z,33.51
2018-09-20T12:10:58.637Z,33.00
2018-09-20T12:11:58.575Z,33.50
2018-09-20T12:12:58.500Z,34.06
2018-09-20T12:13:58.439Z,33.71
2018-09-20T12:14:58.376Z,33.94
2018-09-20T12:15:58.300Z,33.79
2018-09-20T12:16:58.240Z,33.65
2018-09-20T12:17:58.188Z,33.50
2018-09-20T12:18:58.103Z,33.51
2018-09-20T12:19:58.093Z,33.47
2018-09-20T12:20:57.977Z,33.68
2018-09-20T12:21:57.900Z,33.37
2018-09-20T12:22:57.853Z,33.41
2018-09-20T12:23:57.776Z,32.77
2018-09-20T12:24:57.702Z,31.43
2018-09-20T12:25:57.688Z,31.12
2018-09-20T12:26:57.577Z,31.46
2018-09-20T12:27:57.503Z,32.48
2018-09-20T12:28:57.440Z,33.09
2018-09-20T12:29:57.377Z,33.60
2018-09-20T12:30:57.303Z,33.56
2018-09-20T12:31:57.339Z,33.87
2018-09-20T12:32:57.194Z,32.88
2018-09-20T12:33:57.104Z,32.87
2018-09-20T12:34:57.041Z,33.01
2018-09-20T12:35:57.039Z,33.53
2018-09-20T12:36:56.904Z,34.30
2018-09-20T12:37:56.844Z,34.43
2018-09-20T12:38:56.840Z,34.02
2018-09-20T12:39:56.704Z,33.38
2018-09-20T12:40:56.652Z,33.19
2018-09-20T12:41:56.591Z,33.04
2018-09-20T12:42:56.689Z,33.38
2018-09-20T12:43:56.441Z,33.09
2018-09-20T12:44:56.378Z,33.12
2018-09-20T12:45:56.317Z,32.65
2018-09-20T12:46:56.241Z,32.65
2018-09-20T12:47:56.179Z,31.92
2018-09-20T12:48:56.117Z,31.84
2018-09-20T12:49:56.044Z,32.63
2018-09-20T12:50:55.979Z,33.12
2018-09-20T12:51:55.918Z,32.82
2018-09-20T12:52:55.842Z,33.16